createdAt,value
2022-08-25T00:02:36.095Z,100.00
2022-08-25T00:07:39.924Z,100.00
2022-08-25T00:12:44.974Z,100.00
2022-08-25T00:17:49.181Z,100.00
2022-08-25T00:22:53.503Z,100.00
2022-08-25T00:27:59.249Z,100.00
2022-08-25T00:33:04.000Z,100.00
2022-08-25T00:38:07.669Z,100.00
2022-08-25T00:43:13.956Z,100.00
2022-08-25T00:48:17.650Z,100.00
2022-08-25T00:53:21.409Z,100.00
2022-08-25T00:58:29.565Z,100.00
2022-08-25T01:03:35.650Z,100.00
2022-08-25T01:08:40.131Z,100.00
2022-08-25T01:13:49.481Z,100.00
2022-08-25T01:18:56.648Z,100.00
2022-08-25T01:24:02.642Z,100.00
2022-08-25T01:29:25.720Z,100.00
2022-08-25T01:34:31.619Z,100.00
2022-08-25T01:39:37.391Z,100.00
2022-08-25T01:44:45.145Z,100.00
2022-08-25T01:49:49.053Z,100.00
2022-08-25T01:54:54.229Z,100.00
2022-08-25T01:59:58.004Z,100.00
2022-08-25T02:05:01.763Z,100.00
2022-08-25T02:10:08.744Z,100.00
2022-08-25T02:15:12.578Z,100.00
2022-08-25T02:20:16.296Z,100.00
2022-08-25T02:25:21.807Z,100.00
2022-08-25T02:30:25.844Z,100.00
2022-08-25T02:35:30.511Z,100.00
2022-08-25T02:40:36.055Z,100.00
2022-08-25T02:45:39.810Z,100.00
2022-08-25T02:50:48.456Z,100.00
2022-08-25T02:55:53.598Z,100.00
2022-08-25T03:00:57.961Z,100.00
2022-08-25T03:06:01.790Z,100.00
2022-08-25T03:11:07.722Z,100.00
2022-08-25T03:16:12.454Z,100.00
2022-08-25T03:21:17.817Z,100.00
2022-08-25T03:26:40.646Z,100.00
2022-08-25T03:31:44.919Z,100.00
2022-08-25T03:36:52.292Z,100.00
2022-08-25T03:41:57.427Z,100.00
2022-08-25T03:47:01.335Z,100.00
2022-08-25T03:52:06.000Z,100.00
2022-08-25T03:57:11.260Z,100.00
2022-08-25T04:02:15.116Z,100.00
2022-08-25T04:07:19.930Z,100.00
2022-08-25T04:12:25.203Z,100.00
2022-08-25T04:17:29.019Z,100.00
2022-08-25T04:22:36.731Z,100.00
2022-08-25T04:27:42.141Z,100.00
2022-08-25T04:32:45.820Z,100.00
2022-08-25T04:37:49.548Z,100.00
2022-08-25T04:42:54.695Z,100.00
2022-08-25T04:48:01.001Z,100.00
2022-08-25T04:58:14.661Z,100.00
2022-08-25T05:03:20.933Z,100.00
2022-08-25T05:08:25.211Z,100.00
2022-08-25T05:13:30.298Z,100.00
2022-08-25T05:18:36.181Z,100.00
2022-08-25T05:23:42.315Z,100.00
2022-08-25T05:28:48.351Z,100.00
2022-08-25T05:33:53.070Z,100.00
2022-08-25T05:38:57.080Z,100.00
2022-08-25T05:44:02.658Z,100.00
2022-08-25T05:49:07.023Z,100.00
2022-08-25T05:54:11.487Z,100.00
2022-08-25T05:59:19.518Z,100.00
2022-08-25T06:04:23.720Z,100.00
2022-08-25T06:09:30.094Z,100.00
2022-08-25T06:14:36.356Z,100.00
2022-08-25T06:19:44.562Z,100.00
2022-08-25T06:24:49.660Z,100.00
2022-08-25T06:29:56.110Z,100.00
2022-08-25T06:35:02.140Z,100.00
2022-08-25T06:40:10.706Z,100.00
2022-08-25T06:45:20.068Z,100.00
2022-08-25T06:50:27.567Z,100.00
2022-08-25T06:55:35.654Z,100.00
2022-08-25T07:00:44.602Z,100.00
2022-08-25T07:05:55.992Z,100.00
2022-08-25T07:11:06.638Z,100.00
2022-08-25T07:16:18.692Z,100.00
2022-08-25T07:21:24.847Z,100.00
2022-08-25T07:26:37.906Z,100.00
2022-08-25T07:31:44.106Z,100.00
2022-08-25T07:36:48.165Z,100.00
2022-08-25T07:41:53.254Z,100.00
2022-08-25T07:46:59.894Z,100.00
2022-08-25T07:52:06.729Z,100.00
2022-08-25T07:57:12.918Z,100.00
2022-08-25T08:02:24.863Z,100.00
2022-08-25T08:07:43.370Z,100.00
2022-08-25T08:12:48.639Z,100.00
2022-08-25T08:17:57.921Z,100.00
2022-08-25T08:23:02.068Z,100.00
2022-08-25T08:28:07.283Z,100.00
2022-08-25T08:33:12.935Z,100.00
2022-08-25T08:38:22.096Z,100.00
2022-08-25T08:43:33.402Z,100.00
2022-08-25T08:48:48.941Z,100.00
2022-08-25T08:53:57.441Z,100.00
2022-08-25T08:59:06.334Z,100.00
2022-08-25T09:04:20.056Z,100.00
2022-08-25T09:09:35.834Z,100.00
2022-08-25T09:14:58.468Z,100.00
2022-08-25T09:20:30.314Z,100.00
2022-08-25T09:25:54.139Z,99.12
2022-08-25T09:31:02.948Z,98.12
2022-08-25T09:36:08.838Z,95.25
2022-08-25T09:41:17.800Z,96.94
2022-08-25T09:46:27.912Z,92.65
2022-08-25T09:51:42.571Z,90.37
2022-08-25T09:56:51.977Z,92.21
2022-08-25T10:01:57.825Z,91.91
2022-08-25T10:07:08.661Z,90.36
2022-08-25T10:12:21.213Z,73.99
2022-08-25T10:17:34.807Z,78.85
2022-08-25T10:22:41.616Z,80.02
2022-08-25T10:27:55.114Z,73.70
2022-08-25T10:33:12.019Z,70.18
2022-08-25T10:38:36.035Z,64.74
2022-08-25T10:43:47.816Z,61.50
2022-08-25T10:48:59.043Z,62.37
2022-08-25T10:54:10.522Z,57.88
2022-08-25T10:59:31.709Z,54.71
2022-08-25T11:04:45.560Z,50.80
2022-08-25T11:10:01.969Z,49.20
2022-08-25T11:15:11.542Z,45.79
2022-08-25T11:20:26.462Z,43.88
2022-08-25T11:25:38.742Z,44.21
2022-08-25T11:30:53.637Z,41.68
2022-08-25T11:36:02.294Z,40.84
2022-08-25T11:41:23.276Z,34.72
2022-08-25T11:46:46.169Z,32.20
2022-08-25T11:51:52.629Z,33.06
2022-08-25T12:02:30.318Z,32.23
2022-08-25T12:08:22.200Z,31.12
2022-08-25T12:13:44.430Z,29.94
2022-08-25T12:18:50.458Z,30.88
2022-08-25T12:24:10.992Z,32.14
2022-08-25T12:29:21.610Z,29.83
2022-08-25T12:34:41.902Z,29.23
2022-08-25T12:39:59.054Z,29.90
2022-08-25T12:45:15.205Z,27.72
2022-08-25T12:50:40.284Z,29.80
2022-08-25T12:55:50.029Z,27.89
2022-08-25T13:01:11.081Z,27.32
2022-08-25T13:06:48.908Z,28.07
2022-08-25T13:11:59.745Z,27.97
2022-08-25T13:17:04.188Z,29.42
2022-08-25T13:22:16.812Z,29.56
2022-08-25T13:27:25.439Z,27.78
2022-08-25T13:32:49.561Z,28.06
2022-08-25T13:37:54.814Z,28.48
2022-08-25T13:43:02.805Z,29.44
2022-08-25T13:48:07.815Z,28.86
2022-08-25T13:53:30.653Z,27.51
2022-08-25T13:58:44.860Z,28.52
2022-08-25T14:03:50.150Z,28.07
2022-08-25T14:09:16.163Z,27.90
2022-08-25T14:14:36.191Z,27.54
2022-08-25T14:19:47.602Z,28.37
2022-08-25T14:24:54.134Z,27.09
2022-08-25T14:29:57.909Z,27.03
2022-08-25T14:35:09.719Z,27.22
2022-08-25T14:40:19.975Z,26.37
2022-08-25T14:45:23.873Z,28.31
2022-08-25T14:50:27.527Z,28.52
2022-08-25T14:55:32.798Z,28.55
2022-08-25T15:00:38.463Z,28.16
2022-08-25T15:05:42.963Z,27.70
2022-08-25T15:10:48.435Z,27.00
2022-08-25T15:15:58.114Z,27.05
2022-08-25T15:21:02.967Z,28.22
2022-08-25T15:26:11.462Z,27.25
2022-08-25T15:31:18.171Z,28.90
2022-08-25T15:36:25.843Z,27.29
2022-08-25T15:41:31.211Z,28.11
2022-08-25T15:46:37.913Z,27.61
2022-08-25T15:51:42.137Z,28.81
2022-08-25T15:56:47.311Z,28.97
2022-08-25T16:01:53.842Z,28.52
2022-08-25T16:06:58.773Z,29.83
2022-08-25T16:12:06.741Z,28.56
2022-08-25T16:17:12.455Z,30.70
2022-08-25T16:22:16.222Z,29.70
2022-08-25T16:27:21.313Z,30.38
2022-08-25T16:32:24.989Z,32.00
2022-08-25T16:37:28.740Z,34.18
2022-08-25T16:42:33.995Z,35.63
2022-08-25T16:47:39.731Z,36.98
2022-08-25T16:53:01.195Z,38.19
2022-08-25T16:58:12.598Z,37.65
2022-08-25T17:03:17.350Z,37.58
2022-08-25T17:08:30.752Z,37.97
2022-08-25T17:13:44.574Z,39.82
2022-08-25T17:18:51.016Z,39.90
2022-08-25T17:24:00.107Z,39.89
2022-08-25T17:29:06.046Z,40.79
2022-08-25T17:34:12.998Z,41.93
2022-08-25T17:39:22.358Z,43.09
2022-08-25T17:44:27.981Z,42.15
2022-08-25T17:49:32.176Z,41.84
2022-08-25T17:54:35.976Z,42.86
2022-08-25T17:59:41.591Z,42.89
2022-08-25T18:04:45.460Z,43.81
2022-08-25T18:09:49.287Z,44.20
2022-08-25T18:14:55.641Z,45.15
2022-08-25T18:20:06.019Z,44.75
2022-08-25T18:25:14.086Z,43.54
2022-08-25T18:30:20.192Z,45.28
2022-08-25T18:35:26.560Z,46.00
2022-08-25T18:40:32.004Z,46.59
2022-08-25T18:45:43.601Z,46.28
2022-08-25T18:50:50.633Z,46.00
2022-08-25T18:55:58.135Z,46.80
2022-08-25T19:01:04.413Z,48.25
2022-08-25T19:06:08.620Z,48.99
2022-08-25T19:11:13.335Z,49.64
2022-08-25T19:16:30.798Z,50.88
2022-08-25T19:21:35.532Z,50.19
2022-08-25T19:26:40.437Z,50.40
2022-08-25T19:31:48.199Z,52.36
2022-08-25T19:36:52.370Z,52.97
2022-08-25T19:42:06.699Z,54.60
2022-08-25T19:47:13.125Z,56.54
2022-08-25T19:52:24.844Z,62.34
2022-08-25T19:57:42.282Z,68.16
2022-08-25T20:02:48.855Z,70.69
2022-08-25T20:07:53.116Z,74.68
2022-08-25T20:12:57.090Z,74.39
2022-08-25T20:18:02.884Z,74.71
2022-08-25T20:23:24.589Z,72.99
2022-08-25T20:28:28.885Z,77.18
2022-08-25T20:33:33.979Z,78.84
2022-08-25T20:38:37.952Z,81.02
2022-08-25T20:43:43.029Z,82.95
2022-08-25T20:48:49.394Z,80.25
2022-08-25T20:53:53.276Z,78.61
2022-08-25T20:58:57.465Z,76.12
2022-08-25T21:04:02.649Z,75.75
2022-08-25T21:09:15.715Z,75.15
2022-08-25T21:14:21.053Z,75.11
2022-08-25T21:19:30.024Z,77.56
2022-08-25T21:24:34.651Z,78.14
2022-08-25T21:29:39.459Z,80.98
2022-08-25T21:34:59.554Z,82.72
2022-08-25T21:40:03.348Z,82.69
2022-08-25T21:45:12.254Z,83.23
2022-08-25T21:50:18.458Z,83.96
2022-08-25T21:55:22.426Z,82.38
2022-08-25T22:00:26.359Z,84.14
2022-08-25T22:05:31.320Z,90.07
2022-08-25T22:10:34.937Z,95.53
2022-08-25T22:15:38.670Z,93.65
2022-08-25T22:20:44.722Z,95.66
2022-08-25T22:25:48.488Z,100.00
2022-08-25T22:30:52.136Z,98.52
2022-08-25T22:35:59.735Z,100.00
2022-08-25T22:41:03.923Z,100.00
2022-08-25T22:46:12.490Z,100.00
2022-08-25T22:51:21.309Z,100.00
2022-08-25T22:56:31.053Z,100.00
2022-08-25T23:01:35.751Z,100.00
2022-08-25T23:06:40.888Z,100.00
2022-08-25T23:11:46.186Z,100.00
2022-08-25T23:16:50.179Z,100.00
2022-08-25T23:22:10.855Z,100.00
2022-08-25T23:33:15.611Z,100.00
2022-08-25T23:38:24.204Z,100.00
2022-08-25T23:43:27.814Z,100.00
2022-08-25T23:48:32.466Z,100.00
2022-08-25T23:53:38.073Z,100.00
2022-08-25T23:58:43.953Z,100.00
